Terminal Aerodrome Forecast
Issued by NWS Northern Indiana

Home | Current Version | Previous Version | Graphics & Text | Print | Product List | Glossary On
Versions: 1 2 3 4 5 6 7 8 9 10 11 12
000
FTUS43 KIWX 271100
TAFFWA
TAF
KFWA 271120Z 2712/2812 33008KT P6SM SCT025 BKN050
      TEMPO 2712/2715 -SHSN BKN025
     FM271500 32012G20KT P6SM BKN040
     FM280000 35005KT P6SM SCT250=

USA.gov is the U.S. government's official web portal to all federal, state and local government web resources and services.